Terminal Aerodrome Forecast
Issued by NWS

Home | Current Version | Previous Version | Text Only | Print | Product List | Glossary On
Versions: 1 2 3 4 5 6 7 8 9 10 11 12 13 14 15 16 17 18 19 20 21 22 23 24 25 26
225
FTUS46 KLOX 272339
TAFOXR
TAF
KOXR 272339Z 2800/2824 26012KT P6SM FEW015
     FM280600 27006KT P6SM BKN012
     FM281000 VRB03KT 5SM BR OVC010
     FM281700 VRB03KT P6SM SCT012
     FM281900 27013KT P6SM SKC=

USA.gov is the U.S. government's official web portal to all federal, state and local government web resources and services.